Time;durP1;ratioP1;P1;durP2;ratioP2;P2;SDS_P1;SDS_P2;PMS_P1;PMS_P2;Temp;Humidity;BMP_temperature;BMP_pressure;BME280_temperature;BME280_humidity;BME280_pressure;Samples;Min_cycle;Max_cycle;Signal;HPM_P1;HPM_P2
2021/12/25 00:01:17;;;;;;;3.40;1.20;;;;;;;;;;5015772;28;20109;-46
2021/12/25 00:03:43;;;;;;;2.80;1.30;;;;;;;;;;5015218;28;20046;-55
2021/12/25 00:06:09;;;;;;;1.67;1.20;;;;;;;;;;5015522;28;20075;-46
2021/12/25 00:08:38;;;;;;;3.25;1.30;;;;;;;;;;5015865;28;20030;-48
2021/12/25 00:11:07;;;;;;;2.95;1.40;;;;;;;;;;5014764;28;20724;-49
2021/12/25 00:13:33;;;;;;;2.13;1.38;;;;;;;;;;5015544;28;20578;-46
2021/12/25 00:15:59;;;;;;;3.15;1.48;;;;;;;;;;5014611;28;20037;-48
2021/12/25 00:18:25;;;;;;;1.75;1.25;;;;;;;;;;5016096;28;20403;-45
2021/12/25 00:20:52;;;;;;;2.65;1.33;;;;;;;;;;5006198;28;20037;-45
2021/12/25 00:23:17;;;;;;;2.25;1.17;;;;;;;;;;5005143;28;20022;-48
2021/12/25 00:25:49;;;;;;;3.05;1.45;;;;;;;;;;5004479;28;20077;-47
2021/12/25 00:31:24;;;;;;;2.10;1.45;;;;;;;;;;5003904;28;20424;-45
2021/12/25 00:36:01;;;;;;;3.80;1.50;;;;;;;;;;5003926;28;20026;-45
2021/12/25 00:38:27;;;;;;;1.75;1.25;;;;;;;;;;5003873;28;20320;-48
2021/12/25 00:40:53;;;;;;;1.83;1.17;;;;;;;;;;5005047;28;20026;-47
2021/12/25 00:43:19;;;;;;;1.80;1.27;;;;;;;;;;5003882;28;20026;-45
2021/12/25 00:45:45;;;;;;;2.22;1.58;;;;;;;;;;5009035;28;20463;-46
2021/12/25 00:48:14;;;;;;;1.70;1.20;;;;;;;;;;5015920;28;20080;-45
2021/12/25 00:50:40;;;;;;;2.65;1.50;;;;;;;;;;5015458;28;20069;-45
2021/12/25 00:53:06;;;;;;;2.80;1.30;;;;;;;;;;5014815;28;20026;-46
2021/12/25 00:55:32;;;;;;;2.47;1.45;;;;;;;;;;5015699;28;20029;-45
2021/12/25 00:57:58;;;;;;;1.75;1.20;;;;;;;;;;5014845;28;20076;-45
2021/12/25 01:00:24;;;;;;;1.60;1.20;;;;;;;;;;5015941;28;20076;-45
2021/12/25 01:02:53;;;;;;;1.73;1.38;;;;;;;;;;5015051;28;20033;-45
2021/12/25 01:05:19;;;;;;;1.75;1.27;;;;;;;;;;5006293;28;20026;-45
2021/12/25 01:07:45;;;;;;;2.40;1.20;;;;;;;;;;4995102;28;20038;-45
2021/12/25 01:10:15;;;;;;;1.63;1.17;;;;;;;;;;4995610;28;20026;-46
2021/12/25 01:13:27;;;;;;;1.50;1.20;;;;;;;;;;4994964;28;20419;-45
2021/12/25 01:15:59;;;;;;;2.80;1.52;;;;;;;;;;4992268;28;20476;-47
2021/12/25 01:21:35;;;;;;;4.03;1.60;;;;;;;;;;4995423;28;20065;-45
2021/12/25 01:31:48;;;;;;;2.67;1.38;;;;;;;;;;4995223;28;20117;-45
2021/12/25 01:34:27;;;;;;;2.92;1.40;;;;;;;;;;4995399;28;20022;-47
2021/12/25 01:37:46;;;;;;;2.50;1.30;;;;;;;;;;4994549;28;20026;-45
2021/12/25 01:47:52;;;;;;;2.35;1.50;;;;;;;;;;4994164;28;20044;-47
2021/12/25 01:50:19;;;;;;;1.58;1.40;;;;;;;;;;4994851;28;20053;-46
2021/12/25 01:52:45;;;;;;;2.08;1.15;;;;;;;;;;4993922;28;20027;-47
2021/12/25 01:55:13;;;;;;;1.40;1.13;;;;;;;;;;4994107;28;20026;-47
2021/12/25 01:57:40;;;;;;;1.77;1.27;;;;;;;;;;4994299;28;20097;-47
2021/12/25 02:00:09;;;;;;;1.20;1.00;;;;;;;;;;4993823;28;20030;-47
2021/12/25 02:02:35;;;;;;;2.35;1.38;;;;;;;;;;4994222;28;20022;-47
2021/12/25 02:05:01;;;;;;;1.48;1.00;;;;;;;;;;5000578;28;20029;-50
2021/12/25 02:07:27;;;;;;;2.00;1.60;;;;;;;;;;5013901;28;20364;-45
2021/12/25 02:09:53;;;;;;;1.85;1.20;;;;;;;;;;5013457;28;20033;-45
2021/12/25 02:12:19;;;;;;;1.85;1.40;;;;;;;;;;5013983;28;20025;-46
2021/12/25 02:14:47;;;;;;;2.90;1.20;;;;;;;;;;5013076;28;20391;-48
2021/12/25 02:17:31;;;;;;;1.92;1.35;;;;;;;;;;5014092;28;20054;-50
2021/12/25 02:20:23;;;;;;;2.80;1.42;;;;;;;;;;5013156;28;20022;-46
2021/12/25 02:22:51;;;;;;;1.38;1.27;;;;;;;;;;5013303;28;20033;-49
2021/12/25 02:25:17;;;;;;;1.10;0.95;;;;;;;;;;5013907;28;20031;-46
2021/12/25 02:27:46;;;;;;;3.22;1.92;;;;;;;;;;5013528;28;20503;-45
2021/12/25 02:30:12;;;;;;;3.00;1.35;;;;;;;;;;5013713;28;20033;-46
2021/12/25 02:32:38;;;;;;;2.22;1.10;;;;;;;;;;5013715;28;20463;-46
2021/12/25 02:35:04;;;;;;;2.08;1.20;;;;;;;;;;5013085;28;20029;-47
2021/12/25 02:37:30;;;;;;;3.05;1.77;;;;;;;;;;5013487;28;20101;-46
2021/12/25 02:39:59;;;;;;;2.00;1.75;;;;;;;;;;5012502;28;20471;-47
2021/12/25 02:42:25;;;;;;;2.42;1.50;;;;;;;;;;5013123;28;20467;-46
2021/12/25 02:44:51;;;;;;;1.90;1.38;;;;;;;;;;5012952;28;20072;-47
2021/12/25 02:47:20;;;;;;;1.40;1.20;;;;;;;;;;5013247;28;20022;-46
2021/12/25 02:49:47;;;;;;;1.75;1.25;;;;;;;;;;5012760;28;20454;-46
2021/12/25 02:52:13;;;;;;;2.13;1.45;;;;;;;;;;5013511;28;20431;-46
2021/12/25 02:54:43;;;;;;;1.75;0.95;;;;;;;;;;5013262;28;20028;-46
2021/12/25 02:57:09;;;;;;;1.27;1.00;;;;;;;;;;5012374;28;20050;-47
2021/12/25 02:59:35;;;;;;;1.73;1.13;;;;;;;;;;5013212;28;20482;-46
2021/12/25 03:02:12;;;;;;;1.50;1.15;;;;;;;;;;5012853;28;20030;-46
2021/12/25 03:04:39;;;;;;;1.75;1.10;;;;;;;;;;5009435;28;20026;-46
2021/12/25 03:07:05;;;;;;;1.27;1.17;;;;;;;;;;4992868;28;20041;-46
2021/12/25 03:09:32;;;;;;;1.75;1.35;;;;;;;;;;4993287;28;20034;-46
2021/12/25 03:11:58;;;;;;;1.70;1.08;;;;;;;;;;4992741;28;20027;-46
2021/12/25 03:14:33;;;;;;;1.83;1.38;;;;;;;;;;4993367;28;20030;-47
2021/12/25 03:17:00;;;;;;;1.50;1.20;;;;;;;;;;4992855;28;20109;-48
2021/12/25 03:19:31;;;;;;;1.80;1.33;;;;;;;;;;4993224;28;20037;-47
2021/12/25 03:21:58;;;;;;;1.60;1.08;;;;;;;;;;4992754;28;20030;-46
2021/12/25 03:24:24;;;;;;;1.38;1.10;;;;;;;;;;4993090;28;20041;-46
2021/12/25 03:26:53;;;;;;;1.30;1.20;;;;;;;;;;4992282;28;20384;-46
2021/12/25 03:29:19;;;;;;;1.25;1.02;;;;;;;;;;4993157;28;20112;-46
2021/12/25 03:31:45;;;;;;;2.10;1.50;;;;;;;;;;4993225;28;20058;-46
2021/12/25 03:34:12;;;;;;;1.50;1.15;;;;;;;;;;4992427;28;20464;-46
2021/12/25 03:36:38;;;;;;;1.33;0.98;;;;;;;;;;4993398;28;20027;-47
2021/12/25 03:39:06;;;;;;;1.35;0.95;;;;;;;;;;4992135;28;20026;-46
2021/12/25 03:41:32;;;;;;;1.60;0.90;;;;;;;;;;4993375;28;20026;-46
2021/12/25 03:44:00;;;;;;;2.17;1.08;;;;;;;;;;4992392;28;20057;-46
2021/12/25 03:46:29;;;;;;;1.30;1.17;;;;;;;;;;4993102;28;20065;-46
2021/12/25 03:59:37;;;;;;;1.52;1.17;;;;;;;;;;4992695;28;20400;-47
2021/12/25 04:02:12;;;;;;;1.42;1.00;;;;;;;;;;4992263;28;20026;-46
2021/12/25 04:04:43;;;;;;;1.20;1.00;;;;;;;;;;4996413;28;20474;-47
2021/12/25 04:10:07;;;;;;;2.28;1.48;;;;;;;;;;4999226;28;20038;-44
2021/12/25 04:12:33;;;;;;;1.20;0.85;;;;;;;;;;5012258;28;20040;-45
2021/12/25 04:14:59;;;;;;;1.23;0.85;;;;;;;;;;5011375;28;20022;-46
2021/12/25 04:17:28;;;;;;;1.42;1.15;;;;;;;;;;5012005;28;20383;-45
2021/12/25 04:19:54;;;;;;;1.77;1.00;;;;;;;;;;5011532;28;20498;-44
2021/12/25 04:22:28;;;;;;;0.82;0.70;;;;;;;;;;5012273;28;20022;-45
2021/12/25 04:24:54;;;;;;;1.02;0.88;;;;;;;;;;5011407;28;20459;-45
2021/12/25 04:27:21;;;;;;;1.23;0.90;;;;;;;;;;5012225;28;20364;-46
2021/12/25 05:02:03;;;;;;;1.13;0.93;;;;;;;;;;5015457;28;20505;-45
2021/12/25 05:04:35;;;;;;;2.35;0.90;;;;;;;;;;5012974;28;20058;-46
2021/12/25 05:07:02;;;;;;;1.00;0.80;;;;;;;;;;4995267;28;20073;-47
2021/12/25 05:09:28;;;;;;;0.88;0.63;;;;;;;;;;4995535;28;20069;-47
2021/12/25 05:11:54;;;;;;;0.90;0.70;;;;;;;;;;4994734;28;20054;-46
2021/12/25 05:14:20;;;;;;;1.60;0.68;;;;;;;;;;4995643;28;20356;-49
2021/12/25 05:16:46;;;;;;;1.02;0.68;;;;;;;;;;4995409;28;20022;-46
2021/12/25 05:19:12;;;;;;;1.00;0.80;;;;;;;;;;4994799;28;20022;-45
2021/12/25 05:21:38;;;;;;;0.95;0.70;;;;;;;;;;4995143;28;20475;-46
2021/12/25 05:24:05;;;;;;;1.00;0.70;;;;;;;;;;4994804;28;20057;-46
2021/12/25 05:26:32;;;;;;;2.60;1.50;;;;;;;;;;4995299;28;20030;-45
2021/12/25 05:29:00;;;;;;;1.10;0.70;;;;;;;;;;4994709;28;20072;-46
2021/12/25 05:31:27;;;;;;;1.85;1.00;;;;;;;;;;4995252;28;20022;-46
2021/12/25 05:33:53;;;;;;;0.95;0.70;;;;;;;;;;4994696;28;20146;-45
2021/12/25 05:36:19;;;;;;;1.17;0.80;;;;;;;;;;4995167;28;20023;-46
2021/12/25 05:38:45;;;;;;;1.23;0.80;;;;;;;;;;4995355;28;20030;-47
2021/12/25 05:41:12;;;;;;;1.40;0.93;;;;;;;;;;4994378;28;20034;-45
2021/12/25 05:43:38;;;;;;;0.90;0.70;;;;;;;;;;4995074;28;20028;-45
2021/12/25 05:46:04;;;;;;;0.68;0.68;;;;;;;;;;4994372;28;20038;-46
2021/12/25 05:48:35;;;;;;;0.52;0.50;;;;;;;;;;4994800;28;20030;-45
2021/12/25 05:51:02;;;;;;;0.95;0.73;;;;;;;;;;4994331;28;20030;-47
2021/12/25 05:53:28;;;;;;;0.90;0.60;;;;;;;;;;4994921;28;20034;-46
2021/12/25 05:55:54;;;;;;;0.65;0.55;;;;;;;;;;4993608;28;20030;-50
2021/12/25 05:58:20;;;;;;;0.77;0.50;;;;;;;;;;4994462;28;20031;-46
2021/12/25 06:00:46;;;;;;;1.05;0.75;;;;;;;;;;4994503;28;20041;-46
2021/12/25 06:03:12;;;;;;;0.90;0.70;;;;;;;;;;4994087;28;20395;-48
2021/12/25 06:05:38;;;;;;;0.90;0.70;;;;;;;;;;5006230;28;20077;-45
2021/12/25 06:08:05;;;;;;;1.23;0.70;;;;;;;;;;5012871;28;20021;-46
2021/12/25 06:10:31;;;;;;;0.57;0.50;;;;;;;;;;5013784;28;20033;-46
2021/12/25 06:12:59;;;;;;;1.17;0.65;;;;;;;;;;5012879;28;20038;-45
2021/12/25 06:15:26;;;;;;;0.80;0.65;;;;;;;;;;5013712;28;20014;-46
2021/12/25 06:17:52;;;;;;;1.38;0.82;;;;;;;;;;5013145;28;20044;-54
2021/12/25 06:20:19;;;;;;;0.50;0.40;;;;;;;;;;5013090;28;20026;-46
2021/12/25 06:22:45;;;;;;;0.95;0.60;;;;;;;;;;5013533;28;20018;-46
2021/12/25 06:25:11;;;;;;;1.25;0.80;;;;;;;;;;5012721;28;20474;-45
2021/12/25 06:27:38;;;;;;;1.00;0.50;;;;;;;;;;5013183;28;20044;-46
2021/12/25 06:30:05;;;;;;;1.17;0.85;;;;;;;;;;5012557;28;20083;-47
2021/12/25 06:32:31;;;;;;;0.85;0.55;;;;;;;;;;5013313;28;20038;-46
2021/12/25 06:34:57;;;;;;;0.75;0.60;;;;;;;;;;5012575;28;20080;-46
2021/12/25 06:37:24;;;;;;;1.15;0.82;;;;;;;;;;5013371;28;20178;-46
2021/12/25 06:39:50;;;;;;;2.15;0.95;;;;;;;;;;5013105;28;20101;-43
2021/12/25 06:42:16;;;;;;;0.60;0.57;;;;;;;;;;5012060;28;20037;-46
2021/12/25 06:44:43;;;;;;;0.70;0.50;;;;;;;;;;5012877;28;20160;-46
2021/12/25 06:47:09;;;;;;;0.98;0.80;;;;;;;;;;5012261;28;20030;-46
2021/12/25 06:49:35;;;;;;;1.20;0.60;;;;;;;;;;5013155;28;20115;-46
2021/12/25 06:52:01;;;;;;;0.70;0.60;;;;;;;;;;5010810;28;20029;-46
2021/12/25 06:54:27;;;;;;;0.80;0.57;;;;;;;;;;5013035;28;20030;-46
2021/12/25 06:56:54;;;;;;;1.10;0.73;;;;;;;;;;5012294;28;20100;-54
2021/12/25 06:59:24;;;;;;;0.80;0.63;;;;;;;;;;5012146;28;20517;-45
2021/12/25 07:01:51;;;;;;;0.50;0.50;;;;;;;;;;5012513;28;20048;-45
2021/12/25 07:04:17;;;;;;;0.90;0.70;;;;;;;;;;5011533;28;20041;-45
2021/12/25 07:06:43;;;;;;;1.00;0.65;;;;;;;;;;5000107;28;20022;-46
2021/12/25 07:09:09;;;;;;;1.30;0.60;;;;;;;;;;5000090;28;20030;-47
2021/12/25 07:11:36;;;;;;;2.03;1.02;;;;;;;;;;5001047;28;20011;-46
2021/12/25 07:14:04;;;;;;;3.25;0.77;;;;;;;;;;5001966;28;20072;-46
2021/12/25 07:16:30;;;;;;;1.25;0.68;;;;;;;;;;5001566;28;20101;-46
2021/12/25 07:18:56;;;;;;;3.38;0.77;;;;;;;;;;5000451;28;20034;-45
2021/12/25 07:21:22;;;;;;;1.10;0.70;;;;;;;;;;5002856;28;20021;-46
2021/12/25 07:23:48;;;;;;;1.17;0.75;;;;;;;;;;5001237;28;20387;-46
2021/12/25 07:26:18;;;;;;;1.05;0.70;;;;;;;;;;5000467;28;20117;-47
2021/12/25 07:28:48;;;;;;;1.05;0.80;;;;;;;;;;5002396;28;20033;-45
2021/12/25 07:31:14;;;;;;;0.90;0.65;;;;;;;;;;5001307;28;20030;-46
2021/12/25 07:33:40;;;;;;;1.50;0.75;;;;;;;;;;5000283;28;20484;-46
2021/12/25 07:36:09;;;;;;;1.08;0.60;;;;;;;;;;5001749;28;20030;-46
2021/12/25 07:38:35;;;;;;;1.00;0.90;;;;;;;;;;5001336;28;20472;-46
2021/12/25 07:41:01;;;;;;;0.70;0.60;;;;;;;;;;4999850;28;20015;-50
2021/12/25 07:43:27;;;;;;;1.58;0.80;;;;;;;;;;5002103;28;20101;-45
2021/12/25 07:45:53;;;;;;;1.02;0.90;;;;;;;;;;5001936;28;20558;-48
2021/12/25 07:48:20;;;;;;;1.38;0.73;;;;;;;;;;5002191;28;20084;-46
2021/12/25 07:50:47;;;;;;;0.55;0.50;;;;;;;;;;5003191;28;20015;-45
2021/12/25 07:53:16;;;;;;;1.60;0.70;;;;;;;;;;5000716;28;20069;-46
2021/12/25 07:55:42;;;;;;;1.60;0.90;;;;;;;;;;4996191;28;20014;-46
2021/12/25 07:58:08;;;;;;;2.17;0.80;;;;;;;;;;4999037;28;20420;-47
2021/12/25 08:00:34;;;;;;;3.42;1.17;;;;;;;;;;5001250;28;20030;-47
2021/12/25 08:03:00;;;;;;;2.03;1.00;;;;;;;;;;5001253;28;20083;-48
2021/12/25 08:05:26;;;;;;;0.85;0.73;;;;;;;;;;5003716;28;20089;-45
2021/12/25 08:07:52;;;;;;;3.13;0.95;;;;;;;;;;5001120;28;20014;-46
2021/12/25 08:10:20;;;;;;;1.42;0.70;;;;;;;;;;5000731;28;20018;-44
2021/12/25 08:12:52;;;;;;;2.65;0.80;;;;;;;;;;5009489;28;20025;-44
2021/12/25 08:15:18;;;;;;;;;;;;;;;;;;5012390;28;20014;-45
2021/12/25 08:17:44;;;;;;;4.70;0.70;;;;;;;;;;5012411;28;19905;-49
2021/12/25 08:20:10;;;;;;;1.10;0.77;;;;;;;;;;5001900;28;20033;-50
2021/12/25 08:22:37;;;;;;;1.55;0.90;;;;;;;;;;5006944;28;20034;-50
2021/12/25 08:25:03;;;;;;;1.33;0.70;;;;;;;;;;4998188;28;20109;-50
2021/12/25 08:27:29;;;;;;;4.35;0.85;;;;;;;;;;4996602;28;20041;-51
2021/12/25 08:29:55;;;;;;;1.23;0.90;;;;;;;;;;4995759;28;20026;-54
2021/12/25 08:32:21;;;;;;;2.33;0.88;;;;;;;;;;4996484;28;20355;-54
2021/12/25 08:34:48;;;;;;;3.92;0.80;;;;;;;;;;4996061;28;20444;-58
2021/12/25 08:37:14;;;;;;;2.03;1.05;;;;;;;;;;4995843;28;20532;-57
2021/12/25 08:39:40;;;;;;;2.00;0.60;;;;;;;;;;4996370;28;20352;-53
2021/12/25 08:42:07;;;;;;;6.93;1.08;;;;;;;;;;4995526;28;20026;-57
2021/12/25 08:45:04;;;;;;;1.45;0.75;;;;;;;;;;4997706;28;20029;-57
2021/12/25 08:47:27;;;;;;;1.08;0.70;;;;;;;;;;5003623;28;20026;-56
2021/12/25 08:49:53;;;;;;;2.05;0.90;;;;;;;;;;5005458;28;20455;-52
2021/12/25 08:52:20;;;;;;;5.30;0.88;;;;;;;;;;5005519;28;20025;-52
2021/12/25 08:54:48;;;;;;;3.28;0.70;;;;;;;;;;5003333;28;20056;-52
2021/12/25 08:57:15;;;;;;;2.33;0.80;;;;;;;;;;5003805;28;20742;-52
2021/12/25 08:59:41;;;;;;;1.60;0.80;;;;;;;;;;5004335;28;20066;-55
2021/12/25 09:02:10;;;;;;;1.25;0.85;;;;;;;;;;5002299;28;20121;-55
2021/12/25 09:04:37;;;;;;;1.00;0.90;;;;;;;;;;5003764;28;20022;-55
2021/12/25 09:07:04;;;;;;;1.38;0.77;;;;;;;;;;5003803;28;20475;-57
2021/12/25 09:09:30;;;;;;;4.40;1.27;;;;;;;;;;5004378;28;20034;-55
2021/12/25 09:11:56;;;;;;;3.03;1.23;;;;;;;;;;5003009;28;20097;-54
2021/12/25 09:14:22;;;;;;;2.50;1.00;;;;;;;;;;5006211;28;20022;-58
2021/12/25 09:16:48;;;;;;;2.25;1.20;;;;;;;;;;5014729;28;20057;-50
2021/12/25 09:19:15;;;;;;;3.10;1.15;;;;;;;;;;5013559;28;20124;-48
2021/12/25 09:21:41;;;;;;;1.92;1.00;;;;;;;;;;5015189;28;20068;-57
2021/12/25 09:24:07;;;;;;;5.68;0.88;;;;;;;;;;5014308;28;20077;-53
2021/12/25 09:26:34;;;;;;;2.83;0.85;;;;;;;;;;5014823;28;20084;-59
2021/12/25 09:29:00;;;;;;;1.67;0.82;;;;;;;;;;5014394;28;20076;-54
2021/12/25 09:31:26;;;;;;;3.40;1.17;;;;;;;;;;5013865;28;20062;-53
2021/12/25 09:33:52;;;;;;;9.02;1.40;;;;;;;;;;5014478;28;20029;-51
2021/12/25 09:36:18;;;;;;;4.18;0.95;;;;;;;;;;5014148;28;20037;-58
2021/12/25 09:38:45;;;;;;;2.40;1.13;;;;;;;;;;5014516;28;20030;-51
2021/12/25 09:41:11;;;;;;;3.22;1.10;;;;;;;;;;5013988;28;20029;-51
2021/12/25 09:43:39;;;;;;;4.10;1.10;;;;;;;;;;5014715;28;20109;-56
2021/12/25 09:46:05;;;;;;;1.75;0.98;;;;;;;;;;5013891;28;20367;-53
2021/12/25 09:48:33;;;;;;;1.10;0.70;;;;;;;;;;5015075;28;20041;-55
2021/12/25 09:50:59;;;;;;;1.25;0.75;;;;;;;;;;5013856;28;20022;-58
2021/12/25 09:53:26;;;;;;;1.55;0.85;;;;;;;;;;5012948;28;20030;-59
2021/12/25 09:55:53;;;;;;;1.75;0.70;;;;;;;;;;5013546;28;20022;-53
2021/12/25 09:58:20;;;;;;;3.05;1.33;;;;;;;;;;5015474;28;20049;-50
2021/12/25 10:00:47;;;;;;;3.28;1.33;;;;;;;;;;5014005;28;20022;-49
2021/12/25 10:03:13;;;;;;;7.18;1.02;;;;;;;;;;5013528;28;20044;-49
2021/12/25 10:05:45;;;;;;;3.85;1.08;;;;;;;;;;5013996;28;20026;-52
2021/12/25 10:08:25;;;;;;;1.63;0.88;;;;;;;;;;5013654;28;20038;-58
2021/12/25 10:11:01;;;;;;;4.20;0.95;;;;;;;;;;5014337;28;20052;-51
2021/12/25 10:13:31;;;;;;;4.80;1.20;;;;;;;;;;5019472;28;20459;-55
2021/12/25 10:16:01;;;;;;;2.92;1.05;;;;;;;;;;5013492;28;20021;-57
2021/12/25 10:18:34;;;;;;;3.35;1.00;;;;;;;;;;5013795;28;20080;-56
2021/12/25 10:21:35;;;;;;;1.80;0.93;;;;;;;;;;5013158;28;20471;-52
2021/12/25 10:24:07;;;;;;;2.05;1.10;;;;;;;;;;4990267;28;20058;-55
2021/12/25 10:26:35;;;;;;;3.60;1.15;;;;;;;;;;5009853;28;20066;-60
2021/12/25 10:29:15;;;;;;;3.45;0.98;;;;;;;;;;5013220;28;20073;-61
2021/12/25 10:31:41;;;;;;;3.17;1.30;;;;;;;;;;5013300;28;20026;-55
2021/12/25 10:34:17;;;;;;;2.20;1.00;;;;;;;;;;5009980;28;20101;-59
2021/12/25 10:36:44;;;;;;;3.42;1.10;;;;;;;;;;5013229;28;20101;-58
2021/12/25 10:39:20;;;;;;;2.72;1.20;;;;;;;;;;5013062;28;20033;-57
2021/12/25 10:41:54;;;;;;;3.85;1.42;;;;;;;;;;5013320;28;20021;-52
2021/12/25 10:44:20;;;;;;;2.25;1.30;;;;;;;;;;5011930;28;20029;-54
2021/12/25 10:46:46;;;;;;;1.60;0.80;;;;;;;;;;5013398;28;20022;-57
2021/12/25 10:49:13;;;;;;;2.33;1.70;;;;;;;;;;5013016;28;20021;-58
2021/12/25 10:51:39;;;;;;;2.33;1.00;;;;;;;;;;5013454;28;20398;-58
2021/12/25 10:54:06;;;;;;;3.47;0.85;;;;;;;;;;5012309;28;20018;-56
2021/12/25 10:56:36;;;;;;;2.83;0.73;;;;;;;;;;5012666;28;20087;-56
2021/12/25 10:59:04;;;;;;;2.72;1.13;;;;;;;;;;5012740;28;20036;-56
2021/12/25 11:01:37;;;;;;;3.97;0.85;;;;;;;;;;5013312;28;20024;-54
2021/12/25 11:04:04;;;;;;;2.35;0.90;;;;;;;;;;5012564;28;20050;-56
2021/12/25 11:06:30;;;;;;;6.85;1.13;;;;;;;;;;5013177;28;20029;-57
2021/12/25 11:08:58;;;;;;;4.45;1.08;;;;;;;;;;5012920;28;20022;-54
2021/12/25 11:11:24;;;;;;;7.50;1.67;;;;;;;;;;5013079;28;20025;-51
2021/12/25 11:13:52;;;;;;;5.85;1.20;;;;;;;;;;5013100;28;20053;-51
2021/12/25 11:16:27;;;;;;;10.50;1.38;;;;;;;;;;5012273;28;20064;-52
2021/12/25 11:19:05;;;;;;;4.25;1.23;;;;;;;;;;5012608;28;20029;-50
2021/12/25 11:21:33;;;;;;;1.48;1.08;;;;;;;;;;5012793;28;20022;-54
2021/12/25 11:24:16;;;;;;;3.53;0.82;;;;;;;;;;5012488;28;20022;-52
2021/12/25 11:26:44;;;;;;;5.95;1.05;;;;;;;;;;5012736;28;20033;-48
2021/12/25 11:29:12;;;;;;;3.03;1.02;;;;;;;;;;5012212;28;20068;-54
2021/12/25 11:31:38;;;;;;;2.72;0.90;;;;;;;;;;5012514;28;20020;-55
2021/12/25 11:34:05;;;;;;;7.07;1.05;;;;;;;;;;5011940;28;20018;-51
2021/12/25 11:36:32;;;;;;;2.00;0.80;;;;;;;;;;5012794;28;20351;-55
2021/12/25 11:38:58;;;;;;;3.45;0.90;;;;;;;;;;5012774;28;20158;-60
2021/12/25 11:41:28;;;;;;;4.00;0.75;;;;;;;;;;5011745;28;20022;-53
2021/12/25 11:43:55;;;;;;;5.03;1.13;;;;;;;;;;5012524;28;20013;-54
2021/12/25 11:46:23;;;;;;;3.58;1.38;;;;;;;;;;5011956;28;20018;-57
2021/12/25 11:49:09;;;;;;;4.80;1.95;;;;;;;;;;5012539;28;20050;-59
2021/12/25 11:51:35;;;;;;;6.18;0.85;;;;;;;;;;5012481;28;20014;-56
2021/12/25 11:56:45;;;;;;;4.28;0.90;;;;;;;;;;5015161;28;20053;-48
2021/12/25 11:59:13;;;;;;;2.90;1.05;;;;;;;;;;5015973;28;20033;-55
2021/12/25 12:01:40;;;;;;;2.45;1.10;;;;;;;;;;5016455;28;20502;-51
2021/12/25 12:04:12;;;;;;;2.70;1.10;;;;;;;;;;5015718;28;20025;-55
2021/12/25 12:06:47;;;;;;;2.13;1.00;;;;;;;;;;4996911;28;20062;-52
2021/12/25 12:09:13;;;;;;;5.78;1.33;;;;;;;;;;4996162;28;20526;-59
2021/12/25 12:11:40;;;;;;;4.50;1.30;;;;;;;;;;4996767;28;20026;-50
2021/12/25 12:14:23;;;;;;;6.75;1.75;;;;;;;;;;4996178;28;20022;-54
2021/12/25 12:16:50;;;;;;;1.80;1.33;;;;;;;;;;4996558;28;20562;-61
2021/12/25 15:12:07;;;;;;;5.82;1.67;;;;;;;;;;5201067;23;20061;-53
2021/12/25 15:14:33;;;;;;;;;;;;;;;;;;4974650;28;20392;-53
2021/12/25 15:17:01;;;;;;;4.13;1.67;;;;;;;;;;4973925;28;19922;-52
2021/12/25 15:19:29;;;;;;;5.50;1.70;;;;;;;;;;4974111;28;20031;-51
2021/12/25 15:21:55;;;;;;;7.18;2.55;;;;;;;;;;4973350;28;20034;-50
2021/12/25 15:24:23;;;;;;;5.95;2.05;;;;;;;;;;4973847;28;20150;-51
2021/12/25 15:26:59;;;;;;;6.57;1.67;;;;;;;;;;4973314;28;20023;-57
2021/12/25 15:29:40;;;;;;;5.85;1.77;;;;;;;;;;4973660;28;20034;-55
2021/12/25 15:32:08;;;;;;;8.13;2.25;;;;;;;;;;4973382;28;20093;-58
2021/12/25 15:34:35;;;;;;;5.32;2.60;;;;;;;;;;4973881;28;20074;-49
2021/12/25 15:37:01;;;;;;;3.53;1.35;;;;;;;;;;4973098;28;20109;-53
2021/12/25 15:39:32;;;;;;;8.95;2.35;;;;;;;;;;4973691;28;20031;-58
2021/12/25 15:42:01;;;;;;;7.90;1.70;;;;;;;;;;4961978;28;20033;-57
2021/12/25 15:44:28;;;;;;;6.05;1.80;;;;;;;;;;4974712;28;20383;-61
2021/12/25 15:46:54;;;;;;;8.85;2.90;;;;;;;;;;4973769;28;20061;-62
2021/12/25 15:49:21;;;;;;;7.47;2.40;;;;;;;;;;4973232;28;20070;-61
2021/12/25 15:51:54;;;;;;;6.07;1.77;;;;;;;;;;4972768;28;20027;-61
2021/12/25 15:54:22;;;;;;;6.25;2.45;;;;;;;;;;4973274;28;20027;-63
2021/12/25 15:56:48;;;;;;;19.38;10.18;;;;;;;;;;4972607;28;20047;-62
2021/12/25 15:59:14;;;;;;;13.95;7.63;;;;;;;;;;4973223;28;20106;-65
2021/12/25 16:01:40;;;;;;;11.50;6.57;;;;;;;;;;4972618;28;20110;-60
2021/12/25 16:04:07;;;;;;;14.73;6.47;;;;;;;;;;4973728;28;20063;-63
2021/12/25 16:06:33;;;;;;;9.48;5.38;;;;;;;;;;4973438;28;20027;-60
2021/12/25 16:09:04;;;;;;;8.82;4.72;;;;;;;;;;4972557;28;20630;-60
2021/12/25 16:11:30;;;;;;;7.18;4.78;;;;;;;;;;4973108;28;20015;-62
2021/12/25 16:13:56;;;;;;;7.45;4.10;;;;;;;;;;4972854;28;20108;-62
2021/12/25 16:16:22;;;;;;;7.97;3.90;;;;;;;;;;4973020;28;20384;-61
2021/12/25 16:18:50;;;;;;;4.85;3.00;;;;;;;;;;4966241;28;20042;-61
2021/12/25 16:21:16;;;;;;;6.50;3.80;;;;;;;;;;4970597;28;20077;-61
2021/12/25 16:23:42;;;;;;;7.10;3.95;;;;;;;;;;4973857;28;20463;-61
2021/12/25 16:26:08;;;;;;;6.43;3.08;;;;;;;;;;4973071;28;20027;-61
2021/12/25 16:28:34;;;;;;;3.92;2.50;;;;;;;;;;4973275;28;20058;-60
2021/12/25 16:31:00;;;;;;;5.22;3.10;;;;;;;;;;4965963;28;20526;-60
2021/12/25 16:33:27;;;;;;;6.30;2.88;;;;;;;;;;4971456;28;20031;-61
2021/12/25 16:35:53;;;;;;;4.82;2.58;;;;;;;;;;4973827;28;20113;-70
2021/12/25 16:38:19;;;;;;;4.72;2.05;;;;;;;;;;4972704;28;20090;-62
2021/12/25 16:40:45;;;;;;;5.35;2.83;;;;;;;;;;4972590;28;20058;-63
2021/12/25 16:43:12;;;;;;;8.32;2.70;;;;;;;;;;4976700;28;20383;-63
2021/12/25 16:45:38;;;;;;;2.85;1.92;;;;;;;;;;4976746;28;20031;-62
2021/12/25 16:48:05;;;;;;;4.10;1.70;;;;;;;;;;4975860;28;20023;-65
2021/12/25 16:50:32;;;;;;;4.90;2.20;;;;;;;;;;4976348;28;20502;-66
2021/12/25 16:52:58;;;;;;;4.70;2.38;;;;;;;;;;4975010;28;20054;-65
2021/12/25 16:55:24;;;;;;;4.55;2.00;;;;;;;;;;4976295;28;20462;-67
2021/12/25 16:57:50;;;;;;;4.85;1.92;;;;;;;;;;4976134;28;20030;-65
2021/12/25 17:00:18;;;;;;;4.10;2.05;;;;;;;;;;4976263;28;20463;-67
2021/12/25 17:02:46;;;;;;;3.22;1.88;;;;;;;;;;4975033;28;20123;-63
2021/12/25 17:05:12;;;;;;;5.97;1.95;;;;;;;;;;4976492;28;20054;-64
2021/12/25 17:07:38;;;;;;;4.95;2.65;;;;;;;;;;4976214;28;20030;-65
2021/12/25 17:10:05;;;;;;;5.30;2.38;;;;;;;;;;4975791;28;20031;-64
2021/12/25 17:12:31;;;;;;;5.40;1.92;;;;;;;;;;4975840;28;20047;-67
2021/12/25 17:14:57;;;;;;;5.50;1.85;;;;;;;;;;4975708;28;20031;-70
2021/12/25 17:17:24;;;;;;;3.35;1.73;;;;;;;;;;4976342;28;20472;-68
2021/12/25 17:19:50;;;;;;;3.78;1.80;;;;;;;;;;4975588;28;20038;-67
2021/12/25 17:22:17;;;;;;;6.65;2.40;;;;;;;;;;4976016;28;20035;-68
2021/12/25 17:24:43;;;;;;;4.93;1.77;;;;;;;;;;4975287;28;20022;-65
2021/12/25 17:27:09;;;;;;;4.13;1.70;;;;;;;;;;4975670;28;20464;-67
2021/12/25 17:29:38;;;;;;;3.40;1.75;;;;;;;;;;4975780;28;20093;-65
2021/12/25 17:32:04;;;;;;;5.05;1.65;;;;;;;;;;4974937;28;20490;-64
2021/12/25 17:34:30;;;;;;;5.43;1.40;;;;;;;;;;4975541;28;20027;-65
2021/12/25 17:36:56;;;;;;;8.52;2.30;;;;;;;;;;4975687;28;20530;-64
2021/12/25 17:39:22;;;;;;;3.50;1.60;;;;;;;;;;4958271;28;20038;-63
2021/12/25 17:41:49;;;;;;;4.85;1.58;;;;;;;;;;4975135;28;20027;-64
2021/12/25 17:44:18;;;;;;;2.53;1.50;;;;;;;;;;4975576;28;20054;-62
2021/12/25 17:46:44;;;;;;;5.28;1.40;;;;;;;;;;4974841;28;20543;-63
2021/12/25 17:49:11;;;;;;;5.50;1.88;;;;;;;;;;4975841;28;20062;-63
2021/12/25 17:51:37;;;;;;;4.82;1.75;;;;;;;;;;4975691;28;20038;-64
2021/12/25 17:54:04;;;;;;;5.32;1.50;;;;;;;;;;4974390;28;20023;-64
2021/12/25 17:56:30;;;;;;;6.38;1.98;;;;;;;;;;4975659;28;20030;-65
2021/12/25 17:58:56;;;;;;;7.03;1.67;;;;;;;;;;4974666;28;20054;-65
2021/12/25 18:01:22;;;;;;;4.97;1.67;;;;;;;;;;4975508;28;20471;-61
2021/12/25 18:03:48;;;;;;;12.65;2.15;;;;;;;;;;4974537;28;20047;-63
2021/12/25 18:06:15;;;;;;;4.53;1.45;;;;;;;;;;4975214;28;20031;-63
2021/12/25 18:08:41;;;;;;;6.05;1.38;;;;;;;;;;4975221;28;20031;-64
2021/12/25 18:11:08;;;;;;;3.92;1.52;;;;;;;;;;4974471;28;20534;-64
2021/12/25 18:13:34;;;;;;;5.03;1.40;;;;;;;;;;4975312;28;20051;-62
2021/12/25 18:16:00;;;;;;;7.15;1.40;;;;;;;;;;4974563;28;20030;-66
2021/12/25 18:18:26;;;;;;;4.72;1.83;;;;;;;;;;4974992;28;20047;-67
2021/12/25 18:20:53;;;;;;;6.18;1.58;;;;;;;;;;4974442;28;20078;-70
2021/12/25 18:23:20;;;;;;;8.15;1.90;;;;;;;;;;4986881;28;20037;-62
2021/12/25 18:25:52;;;;;;;5.75;2.65;;;;;;;;;;4974284;28;20035;-62
2021/12/25 18:28:19;;;;;;;6.32;2.72;;;;;;;;;;4974811;28;20022;-62
2021/12/25 18:30:46;;;;;;;5.22;2.33;;;;;;;;;;4974124;28;20093;-63
2021/12/25 18:33:12;;;;;;;4.47;1.92;;;;;;;;;;4974588;28;20027;-64
2021/12/25 18:35:39;;;;;;;5.63;2.75;;;;;;;;;;4974823;28;20022;-63
2021/12/25 18:38:05;;;;;;;10.95;2.55;;;;;;;;;;4974185;28;20097;-60
2021/12/25 18:40:32;;;;;;;7.00;3.08;;;;;;;;;;4974636;28;20031;-71
2021/12/25 18:42:58;;;;;;;8.93;3.30;;;;;;;;;;4968804;28;20038;-68
2021/12/25 18:45:25;;;;;;;6.18;3.22;;;;;;;;;;4973539;28;20023;-70
2021/12/25 18:47:51;;;;;;;5.97;2.97;;;;;;;;;;4972877;28;20100;-69
2021/12/25 18:50:21;;;;;;;8.38;2.72;;;;;;;;;;4955355;28;20058;-70
2021/12/25 18:52:49;;;;;;;7.22;2.50;;;;;;;;;;4972217;28;20030;-67